Time;durP1;ratioP1;P1;durP2;ratioP2;P2;SDS_P1;SDS_P2;PMS_P1;PMS_P2;Temp;Humidity;BMP_temperature;BMP_pressure;BME280_temperature;BME280_humidity;BME280_pressure;Samples;Min_cycle;Max_cycle;Signal;HPM_P1;HPM_P2
2022/09/06 00:01:50;;;;;;;10.90;9.83;;;21.80;48.60;;;;;;5075421;28;20564;-41
2022/09/06 00:04:16;;;;;;;10.97;9.87;;;21.70;48.60;;;;;;5075803;28;20179;-41
2022/09/06 00:06:42;;;;;;;11.27;10.17;;;21.70;48.50;;;;;;5075242;28;20906;-42
2022/09/06 00:09:08;;;;;;;12.70;11.50;;;21.70;48.50;;;;;;5075322;28;20172;-42
2022/09/06 00:11:33;;;;;;;12.40;11.17;;;21.70;48.50;;;;;;5075596;28;20284;-41
2022/09/06 00:13:59;;;;;;;11.07;9.87;;;21.70;48.40;;;;;;5075311;28;20556;-42
2022/09/06 00:16:25;;;;;;;11.67;10.40;;;21.70;48.30;;;;;;5075160;28;20203;-42
2022/09/06 00:18:54;;;;;;;11.53;10.50;;;21.70;48.20;;;;;;5075330;28;20188;-41
2022/09/06 00:21:24;;;;;;;10.70;9.70;;;21.70;48.00;;;;;;5075044;28;20450;-42
2022/09/06 00:23:50;;;;;;;11.23;10.03;;;21.70;48.00;;;;;;5075446;28;20458;-42
2022/09/06 00:26:16;;;;;;;15.23;10.20;;;21.60;47.90;;;;;;5074866;28;20930;-41
2022/09/06 00:28:43;;;;;;;11.40;10.30;;;21.60;48.10;;;;;;5075177;28;20748;-41
2022/09/06 00:31:14;;;;;;;12.47;11.27;;;21.50;48.10;;;;;;5075227;28;20513;-42
2022/09/06 00:33:41;;;;;;;11.60;10.50;;;21.50;48.20;;;;;;5075245;28;20419;-41
2022/09/06 00:36:08;;;;;;;14.90;12.20;;;21.50;48.30;;;;;;5074671;28;20441;-42
2022/09/06 00:38:34;;;;;;;11.20;10.20;;;21.50;49.10;;;;;;5074905;28;20577;-41
2022/09/06 00:41:00;;;;;;;11.67;10.57;;;21.40;48.40;;;;;;5074995;28;20510;-42
2022/09/06 00:43:26;;;;;;;13.50;12.30;;;21.40;48.30;;;;;;5074663;28;20541;-42
2022/09/06 00:45:52;;;;;;;12.73;11.40;;;21.40;48.40;;;;;;5074640;28;20206;-41
2022/09/06 00:48:19;;;;;;;11.07;9.87;;;21.40;48.50;;;;;;5075144;28;20176;-42
2022/09/06 00:50:48;;;;;;;12.67;11.43;;;21.30;48.40;;;;;;5074565;28;20426;-41
2022/09/06 00:53:14;;;;;;;11.90;10.73;;;21.30;48.50;;;;;;5074697;28;20502;-41
2022/09/06 00:55:41;;;;;;;15.10;11.20;;;21.30;48.50;;;;;;5073608;28;20411;-40
2022/09/06 00:58:08;;;;;;;11.63;9.80;;;21.30;48.50;;;;;;5074437;28;20498;-41
2022/09/06 01:00:34;;;;;;;12.63;11.43;;;21.30;48.50;;;;;;5074420;28;20431;-41
2022/09/06 01:03:00;;;;;;;11.20;10.10;;;21.20;48.60;;;;;;5074474;28;20527;-42
2022/09/06 01:05:49;;;;;;;12.80;9.83;;;21.20;48.60;;;;;;5074666;28;20752;-41
2022/09/06 01:08:29;;;;;;;12.80;11.50;;;21.10;48.60;;;;;;5074319;28;20177;-41
2022/09/06 01:11:22;;;;;;;12.97;11.30;;;21.10;48.60;;;;;;5074348;28;20433;-41
2022/09/06 01:13:58;;;;;;;11.87;10.67;;;21.10;48.80;;;;;;5074397;28;20859;-42
2022/09/06 01:16:50;;;;;;;10.90;9.90;;;21.10;48.80;;;;;;5074239;28;20406;-41
2022/09/06 01:19:55;;;;;;;19.90;11.90;;;21.10;48.60;;;;;;5074473;28;20391;-41
2022/09/06 01:22:44;;;;;;;10.33;9.43;;;21.10;48.60;;;;;;5074042;28;20966;-41
2022/09/06 01:25:25;;;;;;;11.00;9.73;;;21.00;48.50;;;;;;5074103;28;20403;-40
2022/09/06 01:28:10;;;;;;;13.37;10.00;;;20.90;48.70;;;;;;5073775;28;20743;-42
2022/09/06 01:30:41;;;;;;;11.67;10.43;;;20.90;48.80;;;;;;5073922;28;20520;-41
2022/09/06 01:33:23;;;;;;;10.87;9.70;;;20.90;49.00;;;;;;5074012;28;20488;-42
2022/09/06 01:36:05;;;;;;;12.03;10.80;;;20.80;48.90;;;;;;5073672;28;20758;-42
2022/09/06 01:38:31;;;;;;;11.93;10.27;;;20.80;49.00;;;;;;5073800;28;20902;-41
2022/09/06 01:40:57;;;;;;;11.43;10.33;;;20.80;48.90;;;;;;5073682;28;20434;-41
2022/09/06 01:43:27;;;;;;;10.70;9.70;;;20.90;48.90;;;;;;5073621;28;20274;-42
2022/09/06 01:45:56;;;;;;;12.50;10.70;;;20.90;48.60;;;;;;5073451;28;20403;-41
2022/09/06 01:48:34;;;;;;;11.37;10.30;;;20.90;48.50;;;;;;5073527;28;20411;-41
2022/09/06 01:51:23;;;;;;;9.77;8.87;;;20.90;48.50;;;;;;5073504;28;20435;-41
2022/09/06 01:54:11;;;;;;;10.83;9.73;;;20.80;48.40;;;;;;5073701;28;20411;-41
2022/09/06 01:56:52;;;;;;;10.67;9.67;;;20.70;48.60;;;;;;5073129;28;20856;-42
2022/09/06 01:59:26;;;;;;;9.50;8.57;;;20.60;48.60;;;;;;5073667;28;20391;-41
2022/09/06 02:02:29;;;;;;;10.87;9.87;;;20.60;48.90;;;;;;5073182;28;20922;-41
2022/09/06 02:05:05;;;;;;;11.90;9.90;;;20.50;49.00;;;;;;5073225;28;20406;-41
2022/09/06 02:07:33;;;;;;;11.60;10.40;;;20.50;49.00;;;;;;5073096;28;20414;-41
2022/09/06 02:10:11;;;;;;;12.30;9.80;;;20.50;48.90;;;;;;5072956;28;20899;-41
2022/09/06 02:12:42;;;;;;;11.63;10.53;;;20.50;48.90;;;;;;5073152;28;20426;-41
2022/09/06 02:15:20;;;;;;;11.00;9.90;;;20.50;48.90;;;;;;5073097;28;20391;-41
2022/09/06 02:17:55;;;;;;;10.90;9.90;;;20.50;48.90;;;;;;5072807;28;20423;-40
2022/09/06 02:20:25;;;;;;;10.73;9.70;;;20.50;48.90;;;;;;5072715;28;20491;-41
2022/09/06 02:22:55;;;;;;;10.33;9.33;;;20.50;48.90;;;;;;5072910;28;20520;-41
2022/09/06 02:25:26;;;;;;;11.37;10.27;;;20.50;48.90;;;;;;5073029;28;20476;-41
2022/09/06 02:27:54;;;;;;;12.40;11.20;;;20.50;49.00;;;;;;5072733;28;20497;-41
2022/09/06 02:30:19;;;;;;;11.13;9.23;;;20.50;49.00;;;;;;5072756;28;20426;-42
2022/09/06 02:32:55;;;;;;;16.30;10.40;;;20.50;48.90;;;;;;5054751;28;20430;-41
2022/09/06 02:35:21;;;;;;;11.67;10.50;;;20.50;50.00;;;;;;5073008;28;20415;-41
2022/09/06 02:37:47;;;;;;;12.00;10.80;;;20.40;49.50;;;;;;5072630;28;20422;-41
2022/09/06 02:40:13;;;;;;;10.63;9.63;;;20.40;49.50;;;;;;5072400;28;20431;-41
2022/09/06 02:42:40;;;;;;;12.17;10.03;;;20.40;49.30;;;;;;5072747;28;20462;-40
2022/09/06 02:45:07;;;;;;;12.88;10.13;;;20.40;49.00;;;;;;5072568;28;20180;-41
2022/09/06 02:47:32;;;;;;;11.17;10.07;;;20.30;49.00;;;;;;5072461;28;20200;-41
2022/09/06 02:49:58;;;;;;;12.40;10.43;;;20.30;49.00;;;;;;5072420;28;20441;-41
2022/09/06 02:52:24;;;;;;;11.00;10.00;;;20.30;49.30;;;;;;5072336;28;20176;-41
2022/09/06 02:54:50;;;;;;;9.77;8.77;;;20.20;49.20;;;;;;5072238;28;20240;-41
2022/09/06 02:57:16;;;;;;;10.13;9.10;;;20.30;49.30;;;;;;5072139;28;20644;-41
2022/09/06 02:59:42;;;;;;;10.87;9.50;;;20.30;49.30;;;;;;5072307;28;20410;-41
2022/09/06 03:02:07;;;;;;;11.10;10.00;;;20.30;49.20;;;;;;5072385;28;20203;-40
2022/09/06 03:04:33;;;;;;;10.50;9.30;;;20.30;49.30;;;;;;5072333;28;20599;-41
2022/09/06 03:06:59;;;;;;;9.97;9.00;;;20.20;49.30;;;;;;5072129;28;20172;-40
2022/09/06 03:09:25;;;;;;;12.70;11.50;;;20.20;49.40;;;;;;5072228;28;20633;-40
2022/09/06 03:11:51;;;;;;;12.57;9.90;;;20.20;49.60;;;;;;5072151;28;20461;-40
2022/09/06 03:14:18;;;;;;;12.87;11.53;;;20.20;49.70;;;;;;5072101;28;20243;-41
2022/09/06 03:16:44;;;;;;;11.87;10.00;;;20.20;49.80;;;;;;5071951;28;20555;-41
2022/09/06 03:19:09;;;;;;;12.20;11.00;;;20.10;49.70;;;;;;5071891;28;20399;-41
2022/09/06 03:21:35;;;;;;;11.00;9.90;;;20.20;49.60;;;;;;5071922;28;20204;-41
2022/09/06 03:24:01;;;;;;;11.93;10.60;;;20.20;49.50;;;;;;5072012;28;20568;-41
2022/09/06 03:26:28;;;;;;;11.93;9.90;;;20.20;49.30;;;;;;5071824;28;20533;-41
2022/09/06 03:28:55;;;;;;;11.00;9.90;;;20.20;49.20;;;;;;5071922;28;20422;-40
2022/09/06 03:31:21;;;;;;;11.07;10.00;;;20.20;49.20;;;;;;5072188;28;20423;-41
2022/09/06 03:33:47;;;;;;;9.88;8.95;;;20.10;49.30;;;;;;5071958;28;20172;-41
2022/09/06 03:36:14;;;;;;;12.40;10.80;;;20.00;49.20;;;;;;5071725;28;20586;-41
2022/09/06 03:38:40;;;;;;;11.48;10.48;;;20.00;49.50;;;;;;5072188;28;20460;-40
2022/09/06 03:41:06;;;;;;;13.57;10.53;;;20.00;49.80;;;;;;5072082;28;20283;-41
2022/09/06 03:43:32;;;;;;;12.00;10.83;;;20.00;49.60;;;;;;5072211;28;20591;-41
2022/09/06 03:45:57;;;;;;;9.65;8.73;;;20.00;49.60;;;;;;5072616;28;20177;-41
2022/09/06 03:48:25;;;;;;;11.20;10.10;;;20.00;49.50;;;;;;5072584;28;20195;-41
2022/09/06 03:50:54;;;;;;;10.82;9.82;;;20.10;49.40;;;;;;5072921;28;20196;-41
2022/09/06 03:53:21;;;;;;;10.45;9.43;;;20.10;49.30;;;;;;5072264;28;20200;-41
2022/09/06 03:55:49;;;;;;;10.50;9.50;;;20.00;49.20;;;;;;5071541;28;20175;-40
2022/09/06 03:58:17;;;;;;;11.38;10.20;;;20.00;49.10;;;;;;5071675;28;20255;-41
2022/09/06 04:00:43;;;;;;;11.40;10.25;;;20.00;49.10;;;;;;5071873;28;20227;-41
2022/09/06 04:03:09;;;;;;;12.80;11.55;;;20.00;49.10;;;;;;5071667;28;20266;-41
2022/09/06 04:05:35;;;;;;;11.10;10.10;;;20.00;49.20;;;;;;5071385;28;20168;-41
2022/09/06 04:08:01;;;;;;;12.63;10.97;;;20.00;49.40;;;;;;5071693;28;20169;-41
2022/09/06 04:10:27;;;;;;;11.63;10.53;;;19.90;49.40;;;;;;5071838;28;20517;-41
2022/09/06 04:12:53;;;;;;;11.45;10.38;;;19.90;49.50;;;;;;5071570;28;20422;-41
2022/09/06 04:15:19;;;;;;;12.47;11.17;;;19.90;49.40;;;;;;5071700;28;20537;-41
2022/09/06 04:17:45;;;;;;;12.10;10.87;;;20.00;49.40;;;;;;5071248;28;20902;-41
2022/09/06 04:20:12;;;;;;;14.50;10.00;;;19.90;49.40;;;;;;5071176;28;20434;-41
2022/09/06 04:22:38;;;;;;;10.60;9.60;;;19.90;49.30;;;;;;5071354;28;20201;-41
2022/09/06 04:25:04;;;;;;;11.90;9.60;;;19.90;49.40;;;;;;5071457;28;20668;-41
2022/09/06 04:27:31;;;;;;;15.02;10.30;;;19.90;49.40;;;;;;5071117;28;20714;-41
2022/09/06 04:29:56;;;;;;;12.40;10.70;;;19.80;49.40;;;;;;5071408;28;20169;-41
2022/09/06 04:32:22;;;;;;;14.60;9.90;;;19.80;49.40;;;;;;5075104;28;20168;-41
2022/09/06 04:34:48;;;;;;;12.07;8.82;;;19.90;49.30;;;;;;5074950;28;20667;-41
2022/09/06 04:37:18;;;;;;;11.73;10.60;;;19.90;49.30;;;;;;5074684;28;20184;-39
2022/09/06 04:39:47;;;;;;;15.43;11.15;;;19.90;49.30;;;;;;5075090;28;20165;-41
2022/09/06 04:42:14;;;;;;;11.07;10.00;;;19.90;49.30;;;;;;5074678;28;20207;-41
2022/09/06 04:44:40;;;;;;;11.60;10.50;;;19.90;49.50;;;;;;5074800;28;20235;-41
2022/09/06 04:47:13;;;;;;;11.73;10.55;;;19.90;49.80;;;;;;5074559;28;20936;-41
2022/09/06 04:49:39;;;;;;;13.55;10.40;;;19.80;50.00;;;;;;5074705;28;20537;-41
2022/09/06 04:52:05;;;;;;;23.70;12.30;;;19.90;50.30;;;;;;5074615;28;20188;-39
2022/09/06 04:54:32;;;;;;;11.63;10.50;;;19.90;50.40;;;;;;5074475;28;20540;-41
2022/09/06 04:56:58;;;;;;;13.63;11.40;;;19.90;50.40;;;;;;5074666;28;20430;-41
2022/09/06 04:59:24;;;;;;;12.57;10.97;;;20.00;50.40;;;;;;5074823;28;20596;-41
2022/09/06 05:01:50;;;;;;;13.43;12.03;;;20.00;50.40;;;;;;5074767;28;20196;-41
2022/09/06 05:04:15;;;;;;;15.50;12.07;;;20.00;50.50;;;;;;5074399;28;20211;-41
2022/09/06 05:06:42;;;;;;;12.50;11.30;;;20.00;50.70;;;;;;5056214;28;20256;-41
2022/09/06 05:09:08;;;;;;;13.75;11.13;;;20.00;50.50;;;;;;5075014;28;20801;-41
2022/09/06 05:11:34;;;;;;;13.98;11.45;;;20.10;50.60;;;;;;5074246;28;20277;-40
2022/09/06 05:14:00;;;;;;;14.00;12.50;;;20.20;50.80;;;;;;5074367;28;20196;-42
2022/09/06 05:16:26;;;;;;;14.50;12.93;;;20.20;51.00;;;;;;5074049;28;20490;-41
2022/09/06 05:18:51;;;;;;;15.38;11.68;;;20.30;51.30;;;;;;5074257;28;20188;-41
2022/09/06 05:21:18;;;;;;;16.07;13.97;;;20.30;51.20;;;;;;5073987;28;20209;-42
2022/09/06 05:23:43;;;;;;;12.40;10.85;;;20.40;51.20;;;;;;5074034;28;20322;-41
2022/09/06 05:26:09;;;;;;;13.47;12.10;;;20.40;51.10;;;;;;5073752;28;20204;-42
2022/09/06 05:28:35;;;;;;;17.30;12.90;;;20.40;50.90;;;;;;5074155;28;20164;-42
2022/09/06 05:31:21;;;;;;;15.77;13.97;;;20.50;51.00;;;;;;5073793;28;20977;-42
2022/09/06 05:33:47;;;;;;;14.13;11.82;;;20.60;51.00;;;;;;5074025;28;20837;-41
2022/09/06 05:36:13;;;;;;;15.17;12.30;;;20.60;51.00;;;;;;5073596;28;20177;-40
2022/09/06 05:38:38;;;;;;;13.90;12.50;;;20.60;51.00;;;;;;5073762;28;20536;-41
2022/09/06 05:41:04;;;;;;;15.40;13.80;;;20.70;51.10;;;;;;5073297;28;20199;-42
2022/09/06 05:43:30;;;;;;;13.83;12.33;;;20.80;51.10;;;;;;5073721;28;20200;-42
2022/09/06 05:45:56;;;;;;;22.13;13.47;;;20.90;51.40;;;;;;5073380;28;20184;-42
2022/09/06 05:48:21;;;;;;;19.17;11.80;;;21.00;51.40;;;;;;5073611;28;20239;-43
2022/09/06 05:50:57;;;;;;;17.33;13.90;;;21.00;51.30;;;;;;5073391;28;20264;-41
2022/09/06 05:53:23;;;;;;;17.53;12.87;;;21.10;51.20;;;;;;5073768;28;20172;-41
2022/09/06 05:55:49;;;;;;;18.80;15.70;;;21.20;50.90;;;;;;5073267;28;20446;-42
2022/09/06 05:58:14;;;;;;;12.87;11.03;;;21.30;50.90;;;;;;5073356;28;20176;-41
2022/09/06 06:00:40;;;;;;;14.63;12.07;;;21.30;50.80;;;;;;5073298;28;20196;-40
2022/09/06 06:03:06;;;;;;;12.80;11.43;;;21.40;51.30;;;;;;5073264;28;20203;-41
2022/09/06 06:05:32;;;;;;;16.20;12.17;;;21.50;50.50;;;;;;5073140;28;20176;-42
2022/09/06 06:07:58;;;;;;;12.10;10.90;;;21.60;50.50;;;;;;5073091;28;20180;-41
2022/09/06 06:10:24;;;;;;;14.63;10.90;;;21.70;50.40;;;;;;5073057;28;20668;-43
2022/09/06 06:12:50;;;;;;;17.07;13.80;;;21.80;50.20;;;;;;5073141;28;20493;-43
2022/09/06 06:15:16;;;;;;;13.00;11.47;;;21.80;50.00;;;;;;5073328;28;20833;-41
2022/09/06 06:17:41;;;;;;;12.60;11.40;;;21.90;50.10;;;;;;5072860;28;20239;-41
2022/09/06 06:20:08;;;;;;;13.97;11.80;;;22.00;50.10;;;;;;5072631;28;20172;-41
2022/09/06 06:22:33;;;;;;;13.27;11.80;;;22.00;50.80;;;;;;5072880;28;20200;-41
2022/09/06 06:24:59;;;;;;;14.27;11.70;;;22.10;50.20;;;;;;5072845;28;20411;-41
2022/09/06 06:27:25;;;;;;;14.00;12.57;;;22.10;50.00;;;;;;5072899;28;20230;-42
2022/09/06 06:29:51;;;;;;;12.93;11.70;;;22.20;50.00;;;;;;5072698;28;20230;-41
2022/09/06 06:32:17;;;;;;;22.50;12.30;;;22.20;50.10;;;;;;5072572;28;20687;-42
2022/09/06 06:34:43;;;;;;;17.13;12.00;;;22.20;50.10;;;;;;5072629;28;20399;-42
2022/09/06 06:37:08;;;;;;;13.17;11.87;;;22.30;50.00;;;;;;5072395;28;20230;-42
2022/09/06 06:39:34;;;;;;;12.67;11.03;;;22.30;49.70;;;;;;5072577;28;20177;-40
2022/09/06 06:42:00;;;;;;;11.53;10.53;;;22.40;49.70;;;;;;5072435;28;20192;-40
2022/09/06 06:44:27;;;;;;;12.27;11.07;;;22.50;49.80;;;;;;5072524;28;20283;-41
2022/09/06 06:46:52;;;;;;;11.83;10.23;;;22.50;49.70;;;;;;5072424;28;20252;-41
2022/09/06 06:49:18;;;;;;;11.70;10.60;;;22.50;49.60;;;;;;5072436;28;20490;-41
2022/09/06 06:51:44;;;;;;;17.70;11.53;;;22.60;49.40;;;;;;5072268;28;20203;-42
2022/09/06 06:54:10;;;;;;;12.80;11.50;;;22.70;49.30;;;;;;5071822;28;20181;-42
2022/09/06 06:56:39;;;;;;;16.07;10.80;;;22.80;49.20;;;;;;5072132;28;20169;-41
2022/09/06 06:59:06;;;;;;;11.43;10.33;;;22.80;49.20;;;;;;5072507;28;20414;-43
2022/09/06 07:01:33;;;;;;;14.50;12.70;;;22.80;49.20;;;;;;5072129;28;20434;-42
2022/09/06 07:03:59;;;;;;;13.03;11.27;;;22.90;49.30;;;;;;5072409;28;20455;-40
2022/09/06 07:06:29;;;;;;;11.30;9.63;;;22.90;49.30;;;;;;5072031;28;20418;-42
2022/09/06 07:08:58;;;;;;;12.53;11.40;;;23.00;49.30;;;;;;5072205;28;20403;-41
2022/09/06 07:11:24;;;;;;;11.80;10.70;;;23.00;49.20;;;;;;5072155;28;20530;-43
2022/09/06 07:13:50;;;;;;;12.67;11.20;;;23.10;49.20;;;;;;5072398;28;20410;-42
2022/09/06 07:16:23;;;;;;;11.57;10.43;;;23.10;49.20;;;;;;5072239;28;20410;-42
2022/09/06 07:18:53;;;;;;;13.27;11.97;;;23.20;48.60;;;;;;5072323;28;20471;-42
2022/09/06 07:21:25;;;;;;;12.10;10.90;;;23.20;48.80;;;;;;5071848;28;20533;-42
2022/09/06 07:23:55;;;;;;;11.67;10.47;;;23.30;49.60;;;;;;5072059;28;20463;-42
2022/09/06 07:26:26;;;;;;;16.70;10.30;;;23.30;49.00;;;;;;5071833;28;20414;-43
2022/09/06 07:28:59;;;;;;;14.43;10.97;;;23.40;49.00;;;;;;5071962;28;20837;-43
2022/09/06 07:31:27;;;;;;;12.33;10.67;;;23.40;48.90;;;;;;5071879;28;21000;-43
2022/09/06 07:33:53;;;;;;;11.63;10.43;;;23.40;48.60;;;;;;5071788;28;20434;-43
2022/09/06 07:36:19;;;;;;;12.10;10.90;;;23.50;48.50;;;;;;5071695;28;20964;-43
2022/09/06 07:38:48;;;;;;;12.53;9.50;;;23.50;48.40;;;;;;5071822;28;20411;-42
2022/09/06 07:41:16;;;;;;;10.40;9.40;;;23.50;47.80;;;;;;5071773;28;20587;-43
2022/09/06 07:43:42;;;;;;;10.00;8.87;;;23.60;47.80;;;;;;5071807;28;20469;-43
2022/09/06 07:46:10;;;;;;;8.17;7.40;;;23.60;47.30;;;;;;5071617;28;20399;-42
2022/09/06 07:48:38;;;;;;;9.80;8.13;;;23.60;47.20;;;;;;5071702;28;20168;-44
2022/09/06 07:51:16;;;;;;;9.17;8.27;;;23.60;46.70;;;;;;5072016;28;20455;-44
2022/09/06 07:53:44;;;;;;;7.57;6.80;;;23.60;46.90;;;;;;5071754;28;21123;-42
2022/09/06 07:56:11;;;;;;;8.40;7.57;;;23.60;47.50;;;;;;5071495;28;20407;-42
2022/09/06 07:58:38;;;;;;;11.50;9.27;;;23.60;46.70;;;;;;5071884;28;20835;-43
2022/09/06 08:01:33;;;;;;;8.33;7.67;;;23.60;47.10;;;;;;5071624;28;20427;-44
2022/09/06 08:04:19;;;;;;;8.10;7.40;;;23.70;46.80;;;;;;5071411;28;20443;-43
2022/09/06 08:06:47;;;;;;;7.90;7.20;;;23.70;46.70;;;;;;5074896;28;20442;-44
2022/09/06 08:09:13;;;;;;;9.30;8.00;;;23.70;46.40;;;;;;5075426;28;20944;-43
2022/09/06 08:11:39;;;;;;;11.47;8.17;;;23.70;46.50;;;;;;5075349;28;20433;-42
2022/09/06 08:14:07;;;;;;;9.07;8.10;;;23.80;46.60;;;;;;5075399;28;21122;-41
2022/09/06 08:16:35;;;;;;;9.83;8.67;;;23.80;46.10;;;;;;5075027;28;20411;-42
2022/09/06 08:19:04;;;;;;;9.30;7.23;;;23.80;46.50;;;;;;5075263;28;20414;-41
2022/09/06 08:21:31;;;;;;;8.80;7.90;;;23.90;46.70;;;;;;5075094;28;20534;-43
2022/09/06 08:24:02;;;;;;;8.60;7.90;;;23.90;46.50;;;;;;5075397;28;20499;-43
2022/09/06 08:26:30;;;;;;;8.13;7.33;;;24.00;46.20;;;;;;5074901;28;20403;-42
2022/09/06 08:29:04;;;;;;;8.10;7.30;;;24.00;46.00;;;;;;5075152;28;20406;-43
2022/09/06 08:31:31;;;;;;;8.30;7.50;;;24.10;45.40;;;;;;5074954;28;20433;-43
2022/09/06 08:33:59;;;;;;;7.87;7.07;;;24.10;45.40;;;;;;5075066;28;20970;-43
2022/09/06 08:36:28;;;;;;;7.30;6.60;;;24.20;45.60;;;;;;5074847;28;20419;-42
2022/09/06 08:38:58;;;;;;;8.87;8.00;;;24.20;45.20;;;;;;5075050;28;20542;-43
2022/09/06 08:41:32;;;;;;;9.27;7.10;;;24.30;45.40;;;;;;5074773;28;20461;-43
2022/09/06 08:43:59;;;;;;;8.53;7.83;;;24.40;45.20;;;;;;5074976;28;20481;-44
2022/09/06 08:46:54;;;;;;;8.23;7.33;;;24.40;45.40;;;;;;5074596;28;20413;-42
2022/09/06 08:49:20;;;;;;;8.23;7.53;;;24.50;45.50;;;;;;5074794;28;20456;-42
2022/09/06 08:51:54;;;;;;;8.37;7.60;;;24.60;45.40;;;;;;5074696;28;20927;-43
2022/09/06 08:54:35;;;;;;;10.73;8.17;;;24.70;45.70;;;;;;5074630;28;20407;-43
2022/09/06 08:57:28;;;;;;;8.00;7.20;;;24.80;45.10;;;;;;5074437;28;20414;-42
2022/09/06 08:59:59;;;;;;;7.97;7.20;;;24.90;45.30;;;;;;5074527;28;20403;-42
2022/09/06 09:02:26;;;;;;;9.17;6.10;;;25.00;44.90;;;;;;5074465;28;20483;-43
2022/09/06 09:05:00;;;;;;;11.70;7.87;;;25.00;43.80;;;;;;5074546;28;20403;-42
2022/09/06 09:07:52;;;;;;;12.33;8.17;;;25.10;43.80;;;;;;5074313;28;20403;-42
2022/09/06 09:10:27;;;;;;;7.40;6.70;;;25.20;43.50;;;;;;5074531;28;20425;-41
2022/09/06 09:12:53;;;;;;;6.97;6.27;;;25.20;43.50;;;;;;5074493;28;20407;-43
2022/09/06 09:15:20;;;;;;;8.80;7.00;;;25.30;43.70;;;;;;5075093;28;20447;-42
2022/09/06 09:17:49;;;;;;;7.70;7.10;;;25.30;43.30;;;;;;5073832;28;20755;-43
2022/09/06 09:20:15;;;;;;;8.13;7.17;;;25.40;43.00;;;;;;5074755;28;20541;-44
2022/09/06 09:22:42;;;;;;;6.80;6.20;;;25.40;41.90;;;;;;5074226;28;20550;-43
2022/09/06 09:25:16;;;;;;;8.67;7.97;;;25.50;41.80;;;;;;5074151;28;20549;-42
2022/09/06 09:27:44;;;;;;;10.73;9.43;;;25.60;42.30;;;;;;5074211;28;20742;-42
2022/09/06 09:30:11;;;;;;;8.90;7.13;;;25.70;41.60;;;;;;5073848;28;20498;-43
2022/09/06 09:32:46;;;;;;;7.53;6.83;;;25.70;41.30;;;;;;5073961;28;20501;-43
2022/09/06 09:35:22;;;;;;;9.23;8.33;;;25.70;40.50;;;;;;5074138;28;20391;-42
2022/09/06 09:37:58;;;;;;;7.67;6.90;;;25.60;39.50;;;;;;5073616;28;20411;-42
2022/09/06 09:40:24;;;;;;;7.43;6.73;;;25.50;40.50;;;;;;5073758;28;20461;-43
2022/09/06 09:42:51;;;;;;;7.67;6.97;;;25.50;40.40;;;;;;5073965;28;20490;-42
2022/09/06 09:45:24;;;;;;;8.30;7.50;;;25.50;40.40;;;;;;5073704;28;20456;-42
2022/09/06 09:47:50;;;;;;;7.47;6.43;;;25.50;40.90;;;;;;5073525;28;20929;-42
2022/09/06 09:50:32;;;;;;;8.77;7.90;;;25.60;41.30;;;;;;5073889;28;20514;-42
2022/09/06 09:53:10;;;;;;;7.47;6.77;;;25.70;41.10;;;;;;5073877;28;20419;-42
2022/09/06 09:55:36;;;;;;;9.03;7.67;;;25.80;41.00;;;;;;5073270;28;20418;-42
2022/09/06 09:58:03;;;;;;;8.90;8.10;;;25.70;40.50;;;;;;5055454;28;20976;-42
2022/09/06 10:00:40;;;;;;;7.60;6.60;;;25.80;40.70;;;;;;5073346;28;20434;-42
2022/09/06 10:03:17;;;;;;;10.30;8.07;;;25.90;40.00;;;;;;5073531;28;20453;-43
2022/09/06 10:05:55;;;;;;;8.97;7.23;;;26.00;41.50;;;;;;5073330;28;20399;-42
2022/09/06 10:08:23;;;;;;;8.30;7.43;;;26.10;40.90;;;;;;5073411;28;20883;-42
2022/09/06 10:10:49;;;;;;;7.73;7.03;;;26.20;40.90;;;;;;5073270;28;20427;-41
2022/09/06 10:13:21;;;;;;;7.63;7.00;;;26.20;40.40;;;;;;5073083;28;20491;-41
2022/09/06 10:15:49;;;;;;;9.10;6.90;;;26.20;40.00;;;;;;5073206;28;20181;-41
2022/09/06 10:18:21;;;;;;;6.83;6.23;;;26.20;39.70;;;;;;5073312;28;20493;-41
2022/09/06 10:20:55;;;;;;;7.07;6.23;;;26.30;40.10;;;;;;5072972;28;20511;-41
2022/09/06 10:23:41;;;;;;;9.97;6.80;;;26.40;39.70;;;;;;5072919;28;20434;-42
2022/09/06 10:26:29;;;;;;;7.73;6.93;;;26.40;39.90;;;;;;5072370;28;20998;-42
2022/09/06 10:29:08;;;;;;;8.13;7.33;;;26.40;39.70;;;;;;5071981;28;20427;-42
2022/09/06 10:31:58;;;;;;;6.83;6.23;;;26.40;40.20;;;;;;5072816;28;20792;-42
2022/09/06 10:34:44;;;;;;;8.53;6.67;;;26.50;40.10;;;;;;5072830;28;20871;-41
2022/09/06 10:37:29;;;;;;;7.70;6.90;;;26.50;39.60;;;;;;5072609;28;20812;-41
2022/09/06 10:40:10;;;;;;;6.97;6.37;;;26.50;39.80;;;;;;5055305;28;20782;-42
2022/09/06 10:42:49;;;;;;;7.43;6.70;;;26.60;39.70;;;;;;5072540;28;20439;-42
2022/09/06 10:45:18;;;;;;;7.60;6.77;;;26.50;39.50;;;;;;5072611;28;20407;-42
2022/09/06 10:48:10;;;;;;;7.87;6.90;;;26.60;39.50;;;;;;5072494;28;20493;-41
2022/09/06 10:50:55;;;;;;;8.20;7.20;;;26.50;39.70;;;;;;5072420;28;20422;-42
2022/09/06 10:53:21;;;;;;;8.07;7.27;;;26.60;39.60;;;;;;5072535;28;20399;-42
2022/09/06 10:56:02;;;;;;;7.53;6.90;;;26.60;39.70;;;;;;5072552;28;20417;-42
2022/09/06 10:58:33;;;;;;;7.73;6.40;;;26.60;39.80;;;;;;5072349;28;20188;-42
2022/09/06 11:00:58;;;;;;;7.73;7.03;;;26.70;40.00;;;;;;5054217;28;20438;-42
2022/09/06 11:03:36;;;;;;;8.23;7.27;;;26.90;39.80;;;;;;5072339;28;20476;-42
2022/09/06 11:06:12;;;;;;;7.00;6.30;;;27.20;40.70;;;;;;5072130;28;20161;-42
2022/09/06 11:08:50;;;;;;;7.97;7.33;;;27.30;39.90;;;;;;5072356;28;20407;-42
2022/09/06 11:11:40;;;;;;;7.53;6.83;;;27.40;39.60;;;;;;5072386;28;20422;-42
2022/09/06 11:14:11;;;;;;;8.37;7.53;;;27.50;39.30;;;;;;5059575;28;20434;-42
2022/09/06 11:16:46;;;;;;;7.37;6.67;;;27.60;39.80;;;;;;5054029;28;20796;-42
2022/09/06 11:19:20;;;;;;;6.77;6.17;;;27.80;39.60;;;;;;5072209;28;20417;-42
2022/09/06 11:22:25;;;;;;;8.50;7.80;;;28.00;40.00;;;;;;5071970;28;20969;-42
2022/09/06 11:24:56;;;;;;;6.97;6.37;;;28.20;39.50;;;;;;5071422;28;20431;-42
2022/09/06 11:27:30;;;;;;;14.13;7.03;;;28.30;39.40;;;;;;5071841;28;20901;-42
2022/09/06 11:30:00;;;;;;;7.53;6.93;;;28.40;38.90;;;;;;5072815;28;20397;-43
2022/09/06 11:32:47;;;;;;;8.60;7.43;;;28.50;37.50;;;;;;5071950;28;20403;-44
2022/09/06 11:35:24;;;;;;;11.07;6.93;;;28.60;37.50;;;;;;5072209;28;20391;-42
2022/09/06 11:38:02;;;;;;;7.07;6.47;;;28.70;37.30;;;;;;5072029;28;20403;-43
2022/09/06 11:40:42;;;;;;;6.97;6.37;;;28.80;37.40;;;;;;5074517;28;20407;-43
2022/09/06 11:43:29;;;;;;;6.97;6.30;;;28.90;36.70;;;;;;5076199;28;20451;-44
2022/09/06 11:45:55;;;;;;;7.00;6.40;;;28.90;36.80;;;;;;5047360;28;20410;-43
2022/09/06 11:48:25;;;;;;;7.73;7.03;;;28.90;36.40;;;;;;5076027;28;20901;-43
2022/09/06 11:50:53;;;;;;;7.10;6.40;;;28.90;36.30;;;;;;5075825;28;20667;-43
2022/09/06 11:53:58;;;;;;;7.53;6.73;;;28.90;36.70;;;;;;5076066;28;20439;-42
2022/09/06 11:56:45;;;;;;;6.43;5.63;;;29.00;37.80;;;;;;4974337;28;20792;-43
2022/09/06 11:59:17;;;;;;;7.37;6.77;;;29.10;37.20;;;;;;5069996;28;20425;-43
2022/09/06 12:02:06;;;;;;;7.87;7.23;;;29.10;36.70;;;;;;5076071;28;20429;-42
2022/09/06 12:05:05;;;;;;;6.67;6.10;;;29.10;36.80;;;;;;5075893;28;20803;-41
2022/09/06 12:07:34;;;;;;;7.40;6.70;;;29.20;36.60;;;;;;5057266;28;20421;-43
2022/09/06 12:10:30;;;;;;;6.80;6.20;;;29.20;36.70;;;;;;5075404;28;20920;-43
2022/09/06 12:12:57;;;;;;;8.30;6.07;;;29.30;34.60;;;;;;5075486;28;20416;-42
2022/09/06 12:15:43;;;;;;;7.80;7.00;;;29.40;37.00;;;;;;5075405;28;20406;-42
2022/09/06 12:18:08;;;;;;;7.20;6.47;;;29.60;36.80;;;;;;5075326;28;20470;-43
2022/09/06 12:20:55;;;;;;;6.43;5.87;;;29.80;36.90;;;;;;5075157;28;20529;-43
2022/09/06 12:23:36;;;;;;;6.97;6.37;;;29.90;35.70;;;;;;5075239;28;20218;-42
2022/09/06 12:26:10;;;;;;;6.27;5.67;;;30.00;35.60;;;;;;5075007;28;20411;-43
2022/09/06 12:28:52;;;;;;;7.23;6.63;;;29.90;35.20;;;;;;5075107;28;20404;-42
2022/09/06 12:31:24;;;;;;;8.20;6.20;;;30.00;35.40;;;;;;5075067;28;20991;-43
2022/09/06 12:33:51;;;;;;;7.47;6.77;;;30.00;35.70;;;;;;5075115;28;20914;-43
2022/09/06 12:36:32;;;;;;;8.13;6.13;;;30.00;35.90;;;;;;5074788;28;21003;-43
2022/09/06 12:39:02;;;;;;;7.10;6.40;;;30.10;34.30;;;;;;5075053;28;20415;-42
2022/09/06 12:41:35;;;;;;;7.10;6.40;;;30.20;35.30;;;;;;5075004;28;20422;-43
2022/09/06 12:44:04;;;;;;;6.60;5.97;;;30.20;35.20;;;;;;5075023;28;20446;-43
2022/09/06 12:46:31;;;;;;;6.20;5.60;;;30.30;34.80;;;;;;5075274;28;20408;-43
2022/09/06 12:49:22;;;;;;;6.43;5.70;;;30.30;34.80;;;;;;5074886;28;20991;-42
2022/09/06 12:51:48;;;;;;;6.57;6.00;;;30.30;34.60;;;;;;5068995;28;20484;-43
2022/09/06 12:54:27;;;;;;;6.43;5.83;;;30.20;33.60;;;;;;5074803;28;20410;-43
2022/09/06 12:57:10;;;;;;;6.93;6.30;;;30.00;34.10;;;;;;5074710;28;20487;-43